sensor_id;sensor_type;location;lat;lon;timestamp;temperature;humidity
46590;DHT22;32313;48.722;9.362;2023-05-15T00:00:06;7.80;99.90
46590;DHT22;32313;48.722;9.362;2023-05-15T00:02:38;7.90;99.90
46590;DHT22;32313;48.722;9.362;2023-05-15T00:05:05;7.90;99.90
46590;DHT22;32313;48.722;9.362;2023-05-15T00:07:32;7.80;99.90
46590;DHT22;32313;48.722;9.362;2023-05-15T00:09:58;7.80;99.90
46590;DHT22;32313;48.722;9.362;2023-05-15T00:12:24;7.80;99.90
46590;DHT22;32313;48.722;9.362;2023-05-15T00:14:49;7.70;99.90
46590;DHT22;32313;48.722;9.362;2023-05-15T00:17:15;7.70;99.90
46590;DHT22;32313;48.722;9.362;2023-05-15T00:19:41;7.70;99.90
46590;DHT22;32313;48.722;9.362;2023-05-15T00:22:10;7.80;99.90
46590;DHT22;32313;48.722;9.362;2023-05-15T00:24:36;7.70;99.90
46590;DHT22;32313;48.722;9.362;2023-05-15T00:27:01;7.70;99.90
46590;DHT22;32313;48.722;9.362;2023-05-15T00:29:28;7.70;99.90
46590;DHT22;32313;48.722;9.362;2023-05-15T00:31:54;7.70;99.90
46590;DHT22;32313;48.722;9.362;2023-05-15T00:34:20;7.70;99.90
46590;DHT22;32313;48.722;9.362;2023-05-15T00:36:47;7.80;99.90
46590;DHT22;32313;48.722;9.362;2023-05-15T00:39:13;7.80;99.90
46590;DHT22;32313;48.722;9.362;2023-05-15T00:41:40;7.90;99.90
46590;DHT22;32313;48.722;9.362;2023-05-15T00:44:06;7.90;99.90
46590;DHT22;32313;48.722;9.362;2023-05-15T00:46:34;7.90;99.90
46590;DHT22;32313;48.722;9.362;2023-05-15T00:49:02;7.90;99.90
46590;DHT22;32313;48.722;9.362;2023-05-15T00:51:29;8.00;99.90
46590;DHT22;32313;48.722;9.362;2023-05-15T00:53:54;8.10;99.90
46590;DHT22;32313;48.722;9.362;2023-05-15T00:56:21;8.10;99.90
46590;DHT22;32313;48.722;9.362;2023-05-15T00:58:48;8.10;99.90
46590;DHT22;32313;48.722;9.362;2023-05-15T01:01:17;8.20;99.90
46590;DHT22;32313;48.722;9.362;2023-05-15T01:03:43;8.20;99.90
46590;DHT22;32313;48.722;9.362;2023-05-15T01:06:09;8.30;99.90
46590;DHT22;32313;48.722;9.362;2023-05-15T01:08:44;8.30;99.90
46590;DHT22;32313;48.722;9.362;2023-05-15T01:11:12;8.40;99.90
46590;DHT22;32313;48.722;9.362;2023-05-15T01:13:38;8.50;99.90
46590;DHT22;32313;48.722;9.362;2023-05-15T01:16:05;8.50;99.90
46590;DHT22;32313;48.722;9.362;2023-05-15T01:18:31;8.50;99.90
46590;DHT22;32313;48.722;9.362;2023-05-15T01:21:05;8.50;99.90
46590;DHT22;32313;48.722;9.362;2023-05-15T01:23:56;8.50;99.90
46590;DHT22;32313;48.722;9.362;2023-05-15T01:29:54;8.60;99.90
46590;DHT22;32313;48.722;9.362;2023-05-15T01:35:22;8.60;99.90
46590;DHT22;32313;48.722;9.362;2023-05-15T01:38:21;8.60;99.90
46590;DHT22;32313;48.722;9.362;2023-05-15T01:40:44;8.60;99.90
46590;DHT22;32313;48.722;9.362;2023-05-15T01:43:17;8.70;99.90
46590;DHT22;32313;48.722;9.362;2023-05-15T01:45:46;8.70;99.90
46590;DHT22;32313;48.722;9.362;2023-05-15T01:48:14;8.70;99.90
46590;DHT22;32313;48.722;9.362;2023-05-15T01:50:44;8.70;99.90
46590;DHT22;32313;48.722;9.362;2023-05-15T01:53:11;8.80;99.90
46590;DHT22;32313;48.722;9.362;2023-05-15T01:55:38;8.80;99.90
46590;DHT22;32313;48.722;9.362;2023-05-15T01:58:04;8.80;99.90
46590;DHT22;32313;48.722;9.362;2023-05-15T02:00:32;8.80;99.90
46590;DHT22;32313;48.722;9.362;2023-05-15T02:02:59;8.90;99.90
46590;DHT22;32313;48.722;9.362;2023-05-15T02:05:25;8.80;99.90
46590;DHT22;32313;48.722;9.362;2023-05-15T02:07:52;8.80;99.90
46590;DHT22;32313;48.722;9.362;2023-05-15T02:10:18;8.90;99.90
46590;DHT22;32313;48.722;9.362;2023-05-15T02:12:48;8.80;99.90
46590;DHT22;32313;48.722;9.362;2023-05-15T02:15:16;8.80;99.90
46590;DHT22;32313;48.722;9.362;2023-05-15T02:17:45;8.80;99.90
46590;DHT22;32313;48.722;9.362;2023-05-15T02:20:11;8.80;99.90
46590;DHT22;32313;48.722;9.362;2023-05-15T02:22:37;8.90;99.90
46590;DHT22;32313;48.722;9.362;2023-05-15T02:25:03;8.90;99.90
46590;DHT22;32313;48.722;9.362;2023-05-15T02:27:41;8.90;99.90
46590;DHT22;32313;48.722;9.362;2023-05-15T02:30:26;8.90;99.90
46590;DHT22;32313;48.722;9.362;2023-05-15T02:33:18;8.90;99.90
46590;DHT22;32313;48.722;9.362;2023-05-15T02:38:16;8.90;99.90
46590;DHT22;32313;48.722;9.362;2023-05-15T02:40:46;8.90;99.90
46590;DHT22;32313;48.722;9.362;2023-05-15T02:43:14;8.90;99.90
46590;DHT22;32313;48.722;9.362;2023-05-15T02:45:44;8.90;99.90
46590;DHT22;32313;48.722;9.362;2023-05-15T02:48:11;8.90;99.90
46590;DHT22;32313;48.722;9.362;2023-05-15T02:50:37;8.90;99.90
46590;DHT22;32313;48.722;9.362;2023-05-15T02:53:04;8.90;99.90
46590;DHT22;32313;48.722;9.362;2023-05-15T02:55:30;9.00;99.90
46590;DHT22;32313;48.722;9.362;2023-05-15T02:57:57;9.00;99.90
46590;DHT22;32313;48.722;9.362;2023-05-15T03:00:23;9.00;99.90
46590;DHT22;32313;48.722;9.362;2023-05-15T03:02:49;9.00;99.90
46590;DHT22;32313;48.722;9.362;2023-05-15T03:05:15;9.00;99.90
46590;DHT22;32313;48.722;9.362;2023-05-15T03:07:40;9.00;99.90
46590;DHT22;32313;48.722;9.362;2023-05-15T03:10:07;9.00;99.90
46590;DHT22;32313;48.722;9.362;2023-05-15T03:12:33;9.00;99.90
46590;DHT22;32313;48.722;9.362;2023-05-15T03:14:59;8.90;99.90
46590;DHT22;32313;48.722;9.362;2023-05-15T03:17:26;8.90;99.90
46590;DHT22;32313;48.722;9.362;2023-05-15T03:19:52;8.80;99.90
46590;DHT22;32313;48.722;9.362;2023-05-15T03:22:18;8.80;99.90
46590;DHT22;32313;48.722;9.362;2023-05-15T03:24:45;8.80;99.90
46590;DHT22;32313;48.722;9.362;2023-05-15T03:27:10;8.80;99.90
46590;DHT22;32313;48.722;9.362;2023-05-15T03:29:37;8.80;99.90
46590;DHT22;32313;48.722;9.362;2023-05-15T03:32:03;8.70;99.90
46590;DHT22;32313;48.722;9.362;2023-05-15T03:34:29;8.60;99.90
46590;DHT22;32313;48.722;9.362;2023-05-15T03:36:55;8.60;99.90
46590;DHT22;32313;48.722;9.362;2023-05-15T03:39:20;8.60;99.90
46590;DHT22;32313;48.722;9.362;2023-05-15T03:41:47;8.60;99.90
46590;DHT22;32313;48.722;9.362;2023-05-15T03:44:13;8.60;99.90
46590;DHT22;32313;48.722;9.362;2023-05-15T03:46:39;8.50;99.90
46590;DHT22;32313;48.722;9.362;2023-05-15T03:49:05;8.50;99.90
46590;DHT22;32313;48.722;9.362;2023-05-15T03:51:33;8.50;99.90
46590;DHT22;32313;48.722;9.362;2023-05-15T03:53:59;8.50;99.90
46590;DHT22;32313;48.722;9.362;2023-05-15T03:56:25;8.50;99.90
46590;DHT22;32313;48.722;9.362;2023-05-15T03:58:50;8.50;99.90
46590;DHT22;32313;48.722;9.362;2023-05-15T04:01:16;8.50;99.90
46590;DHT22;32313;48.722;9.362;2023-05-15T04:03:42;8.50;99.90
46590;DHT22;32313;48.722;9.362;2023-05-15T04:06:08;8.50;99.90
46590;DHT22;32313;48.722;9.362;2023-05-15T04:08:34;8.50;99.90
46590;DHT22;32313;48.722;9.362;2023-05-15T04:10:59;8.60;99.90
46590;DHT22;32313;48.722;9.362;2023-05-15T04:13:25;8.60;99.90
46590;DHT22;32313;48.722;9.362;2023-05-15T04:15:51;8.60;99.90
46590;DHT22;32313;48.722;9.362;2023-05-15T04:18:18;8.60;99.90
46590;DHT22;32313;48.722;9.362;2023-05-15T04:20:44;8.70;99.90
46590;DHT22;32313;48.722;9.362;2023-05-15T04:23:09;8.70;99.90
46590;DHT22;32313;48.722;9.362;2023-05-15T04:25:35;8.80;99.90
46590;DHT22;32313;48.722;9.362;2023-05-15T04:28:02;8.90;99.90
46590;DHT22;32313;48.722;9.362;2023-05-15T04:30:28;8.90;99.90
46590;DHT22;32313;48.722;9.362;2023-05-15T04:32:54;9.00;99.90
46590;DHT22;32313;48.722;9.362;2023-05-15T04:35:20;9.10;99.90
46590;DHT22;32313;48.722;9.362;2023-05-15T04:37:46;9.20;99.90
46590;DHT22;32313;48.722;9.362;2023-05-15T04:40:12;9.30;99.90
46590;DHT22;32313;48.722;9.362;2023-05-15T04:42:41;9.40;99.90
46590;DHT22;32313;48.722;9.362;2023-05-15T04:45:07;9.50;99.90
46590;DHT22;32313;48.722;9.362;2023-05-15T04:47:34;9.60;99.90
46590;DHT22;32313;48.722;9.362;2023-05-15T04:50:00;9.80;99.90
46590;DHT22;32313;48.722;9.362;2023-05-15T04:52:25;9.90;99.90
46590;DHT22;32313;48.722;9.362;2023-05-15T04:54:51;10.00;99.90
46590;DHT22;32313;48.722;9.362;2023-05-15T04:57:20;10.20;99.90
46590;DHT22;32313;48.722;9.362;2023-05-15T04:59:46;10.40;99.90
46590;DHT22;32313;48.722;9.362;2023-05-15T05:02:12;10.50;99.90
46590;DHT22;32313;48.722;9.362;2023-05-15T05:04:37;10.70;99.90
46590;DHT22;32313;48.722;9.362;2023-05-15T05:07:03;10.80;99.90
46590;DHT22;32313;48.722;9.362;2023-05-15T05:09:30;10.90;99.90
46590;DHT22;32313;48.722;9.362;2023-05-15T05:11:59;11.10;99.90
46590;DHT22;32313;48.722;9.362;2023-05-15T05:14:26;11.20;99.90
46590;DHT22;32313;48.722;9.362;2023-05-15T05:16:52;11.30;99.90
46590;DHT22;32313;48.722;9.362;2023-05-15T05:19:18;11.40;99.90
46590;DHT22;32313;48.722;9.362;2023-05-15T05:21:43;11.50;99.90
46590;DHT22;32313;48.722;9.362;2023-05-15T05:24:09;11.70;99.90
46590;DHT22;32313;48.722;9.362;2023-05-15T05:26:36;11.80;99.90
46590;DHT22;32313;48.722;9.362;2023-05-15T05:29:01;11.80;99.90
46590;DHT22;32313;48.722;9.362;2023-05-15T05:31:27;11.90;99.90
46590;DHT22;32313;48.722;9.362;2023-05-15T05:33:53;12.00;99.90
46590;DHT22;32313;48.722;9.362;2023-05-15T05:36:18;12.20;99.90
46590;DHT22;32313;48.722;9.362;2023-05-15T05:38:44;12.40;99.90
46590;DHT22;32313;48.722;9.362;2023-05-15T05:41:10;12.60;99.90
46590;DHT22;32313;48.722;9.362;2023-05-15T05:43:36;12.70;99.90
46590;DHT22;32313;48.722;9.362;2023-05-15T05:46:01;12.70;99.90
46590;DHT22;32313;48.722;9.362;2023-05-15T05:48:27;12.70;99.90
46590;DHT22;32313;48.722;9.362;2023-05-15T05:50:53;12.70;99.90
46590;DHT22;32313;48.722;9.362;2023-05-15T05:53:19;12.70;99.90
46590;DHT22;32313;48.722;9.362;2023-05-15T05:55:45;12.70;99.90
46590;DHT22;32313;48.722;9.362;2023-05-15T05:58:11;12.70;99.90
46590;DHT22;32313;48.722;9.362;2023-05-15T06:00:37;12.60;99.90
46590;DHT22;32313;48.722;9.362;2023-05-15T06:03:02;12.60;99.90
46590;DHT22;32313;48.722;9.362;2023-05-15T06:05:29;12.70;99.90
46590;DHT22;32313;48.722;9.362;2023-05-15T06:07:54;12.80;99.90
46590;DHT22;32313;48.722;9.362;2023-05-15T06:10:21;12.90;99.90
46590;DHT22;32313;48.722;9.362;2023-05-15T06:12:47;13.00;99.90
46590;DHT22;32313;48.722;9.362;2023-05-15T06:15:14;13.00;99.90
46590;DHT22;32313;48.722;9.362;2023-05-15T06:17:40;13.00;99.90
46590;DHT22;32313;48.722;9.362;2023-05-15T06:20:07;12.90;99.90
46590;DHT22;32313;48.722;9.362;2023-05-15T06:22:34;12.90;99.90
46590;DHT22;32313;48.722;9.362;2023-05-15T06:25:01;12.90;99.90
46590;DHT22;32313;48.722;9.362;2023-05-15T06:27:27;12.90;99.90
46590;DHT22;32313;48.722;9.362;2023-05-15T06:29:54;13.10;99.90
46590;DHT22;32313;48.722;9.362;2023-05-15T06:32:20;13.30;99.90
46590;DHT22;32313;48.722;9.362;2023-05-15T06:34:46;13.50;99.90
46590;DHT22;32313;48.722;9.362;2023-05-15T06:37:11;13.60;99.90
46590;DHT22;32313;48.722;9.362;2023-05-15T06:39:37;13.70;99.90
46590;DHT22;32313;48.722;9.362;2023-05-15T06:42:03;13.90;99.90
46590;DHT22;32313;48.722;9.362;2023-05-15T06:44:30;14.00;99.90
46590;DHT22;32313;48.722;9.362;2023-05-15T06:46:56;14.10;99.90
46590;DHT22;32313;48.722;9.362;2023-05-15T06:49:23;14.20;99.90
46590;DHT22;32313;48.722;9.362;2023-05-15T06:51:49;14.40;99.90
46590;DHT22;32313;48.722;9.362;2023-05-15T06:54:15;14.50;99.90
46590;DHT22;32313;48.722;9.362;2023-05-15T06:56:41;14.80;99.90
46590;DHT22;32313;48.722;9.362;2023-05-15T06:59:07;15.00;99.90
46590;DHT22;32313;48.722;9.362;2023-05-15T07:01:32;15.20;99.90
46590;DHT22;32313;48.722;9.362;2023-05-15T07:03:58;15.80;99.90
46590;DHT22;32313;48.722;9.362;2023-05-15T07:06:24;16.50;99.90
46590;DHT22;32313;48.722;9.362;2023-05-15T07:08:51;17.10;99.90
46590;DHT22;32313;48.722;9.362;2023-05-15T07:11:17;17.60;99.90
46590;DHT22;32313;48.722;9.362;2023-05-15T07:13:43;18.20;99.90
46590;DHT22;32313;48.722;9.362;2023-05-15T07:16:09;18.40;99.90
46590;DHT22;32313;48.722;9.362;2023-05-15T07:18:34;18.70;99.90
46590;DHT22;32313;48.722;9.362;2023-05-15T07:21:00;18.60;99.90
46590;DHT22;32313;48.722;9.362;2023-05-15T07:23:26;18.30;99.90
46590;DHT22;32313;48.722;9.362;2023-05-15T07:25:53;17.90;99.90
46590;DHT22;32313;48.722;9.362;2023-05-15T07:28:20;17.60;99.90
46590;DHT22;32313;48.722;9.362;2023-05-15T07:30:47;17.70;99.90
46590;DHT22;32313;48.722;9.362;2023-05-15T07:33:13;18.50;99.90
46590;DHT22;32313;48.722;9.362;2023-05-15T07:35:38;18.40;99.90
46590;DHT22;32313;48.722;9.362;2023-05-15T07:38:04;18.80;99.90
46590;DHT22;32313;48.722;9.362;2023-05-15T07:40:30;19.40;99.90
46590;DHT22;32313;48.722;9.362;2023-05-15T07:42:57;19.90;99.90
46590;DHT22;32313;48.722;9.362;2023-05-15T07:45:23;20.30;99.90
46590;DHT22;32313;48.722;9.362;2023-05-15T07:47:49;20.80;99.90
46590;DHT22;32313;48.722;9.362;2023-05-15T07:50:16;21.00;99.90
46590;DHT22;32313;48.722;9.362;2023-05-15T07:52:42;21.40;99.90
46590;DHT22;32313;48.722;9.362;2023-05-15T07:55:09;21.80;99.90
46590;DHT22;32313;48.722;9.362;2023-05-15T07:57:35;21.60;99.90
46590;DHT22;32313;48.722;9.362;2023-05-15T08:00:01;21.30;99.90
46590;DHT22;32313;48.722;9.362;2023-05-15T08:02:37;21.40;99.90
46590;DHT22;32313;48.722;9.362;2023-05-15T08:05:03;21.30;99.90
46590;DHT22;32313;48.722;9.362;2023-05-15T08:07:34;21.20;99.90
46590;DHT22;32313;48.722;9.362;2023-05-15T08:10:00;21.20;99.90
46590;DHT22;32313;48.722;9.362;2023-05-15T08:12:25;20.80;99.90
46590;DHT22;32313;48.722;9.362;2023-05-15T08:14:53;21.20;99.90
46590;DHT22;32313;48.722;9.362;2023-05-15T08:17:20;21.70;99.90
46590;DHT22;32313;48.722;9.362;2023-05-15T08:19:46;21.10;99.90
46590;DHT22;32313;48.722;9.362;2023-05-15T08:22:13;20.80;99.90
46590;DHT22;32313;48.722;9.362;2023-05-15T08:24:39;21.40;99.90
46590;DHT22;32313;48.722;9.362;2023-05-15T08:27:06;21.70;99.90
46590;DHT22;32313;48.722;9.362;2023-05-15T08:29:36;22.10;99.90
46590;DHT22;32313;48.722;9.362;2023-05-15T08:32:03;22.20;99.90
46590;DHT22;32313;48.722;9.362;2023-05-15T08:34:29;21.80;99.90
46590;DHT22;32313;48.722;9.362;2023-05-15T08:36:55;21.30;99.90
46590;DHT22;32313;48.722;9.362;2023-05-15T08:39:21;20.80;99.90
46590;DHT22;32313;48.722;9.362;2023-05-15T08:44:33;21.30;99.90
46590;DHT22;32313;48.722;9.362;2023-05-15T08:46:59;21.80;99.90
46590;DHT22;32313;48.722;9.362;2023-05-15T08:52:12;23.30;99.90
46590;DHT22;32313;48.722;9.362;2023-05-15T08:54:39;23.30;99.90
46590;DHT22;32313;48.722;9.362;2023-05-15T08:57:05;23.10;99.90
46590;DHT22;32313;48.722;9.362;2023-05-15T08:59:31;22.90;99.90
46590;DHT22;32313;48.722;9.362;2023-05-15T09:01:58;22.00;99.90
46590;DHT22;32313;48.722;9.362;2023-05-15T09:04:24;22.00;99.90
46590;DHT22;32313;48.722;9.362;2023-05-15T09:06:50;23.00;99.90
46590;DHT22;32313;48.722;9.362;2023-05-15T09:09:17;23.80;99.90
46590;DHT22;32313;48.722;9.362;2023-05-15T09:11:46;24.30;99.90
46590;DHT22;32313;48.722;9.362;2023-05-15T09:14:12;24.70;99.90
46590;DHT22;32313;48.722;9.362;2023-05-15T09:16:38;24.30;99.90
46590;DHT22;32313;48.722;9.362;2023-05-15T09:19:04;24.50;99.90
46590;DHT22;32313;48.722;9.362;2023-05-15T09:21:31;24.80;99.90
46590;DHT22;32313;48.722;9.362;2023-05-15T09:27:02;24.80;99.90
46590;DHT22;32313;48.722;9.362;2023-05-15T09:29:30;23.90;99.90
46590;DHT22;32313;48.722;9.362;2023-05-15T09:31:56;23.30;99.90
46590;DHT22;32313;48.722;9.362;2023-05-15T09:34:29;22.20;99.90
46590;DHT22;32313;48.722;9.362;2023-05-15T09:36:56;21.20;99.90
46590;DHT22;32313;48.722;9.362;2023-05-15T09:39:22;21.50;99.90
46590;DHT22;32313;48.722;9.362;2023-05-15T09:41:48;21.60;99.90
46590;DHT22;32313;48.722;9.362;2023-05-15T09:44:23;22.60;99.90
46590;DHT22;32313;48.722;9.362;2023-05-15T09:46:50;23.60;99.90
46590;DHT22;32313;48.722;9.362;2023-05-15T09:49:19;23.80;99.90
46590;DHT22;32313;48.722;9.362;2023-05-15T09:51:46;24.20;99.70
46590;DHT22;32313;48.722;9.362;2023-05-15T09:54:17;23.90;99.90
46590;DHT22;32313;48.722;9.362;2023-05-15T09:56:46;23.90;99.00
46590;DHT22;32313;48.722;9.362;2023-05-15T09:59:16;24.30;98.20
46590;DHT22;32313;48.722;9.362;2023-05-15T10:01:42;24.10;99.30
46590;DHT22;32313;48.722;9.362;2023-05-15T10:04:11;23.80;98.10
46590;DHT22;32313;48.722;9.362;2023-05-15T10:06:39;23.00;98.20
46590;DHT22;32313;48.722;9.362;2023-05-15T10:09:05;22.90;98.30
46590;DHT22;32313;48.722;9.362;2023-05-15T10:11:36;22.30;98.10
46590;DHT22;32313;48.722;9.362;2023-05-15T10:14:04;22.00;98.20
46590;DHT22;32313;48.722;9.362;2023-05-15T10:16:33;21.30;98.60
46590;DHT22;32313;48.722;9.362;2023-05-15T10:19:02;21.00;99.60
46590;DHT22;32313;48.722;9.362;2023-05-15T10:21:33;20.90;99.90
46590;DHT22;32313;48.722;9.362;2023-05-15T10:23:59;21.70;99.90
46590;DHT22;32313;48.722;9.362;2023-05-15T10:26:43;21.70;99.90
46590;DHT22;32313;48.722;9.362;2023-05-15T10:29:11;21.00;99.90
46590;DHT22;32313;48.722;9.362;2023-05-15T10:31:41;20.40;99.90
46590;DHT22;32313;48.722;9.362;2023-05-15T10:34:08;20.40;99.90
46590;DHT22;32313;48.722;9.362;2023-05-15T10:36:35;21.10;99.90
46590;DHT22;32313;48.722;9.362;2023-05-15T10:39:06;21.60;99.90
46590;DHT22;32313;48.722;9.362;2023-05-15T10:41:36;22.30;99.90
46590;DHT22;32313;48.722;9.362;2023-05-15T10:44:03;23.10;99.60
46590;DHT22;32313;48.722;9.362;2023-05-15T10:46:30;24.10;98.70
46590;DHT22;32313;48.722;9.362;2023-05-15T10:48:58;25.10;98.10
46590;DHT22;32313;48.722;9.362;2023-05-15T10:51:26;26.10;94.70
46590;DHT22;32313;48.722;9.362;2023-05-15T10:53:52;26.40;94.70
46590;DHT22;32313;48.722;9.362;2023-05-15T10:56:19;25.50;92.70
46590;DHT22;32313;48.722;9.362;2023-05-15T10:58:49;24.20;93.10
46590;DHT22;32313;48.722;9.362;2023-05-15T11:01:28;23.20;92.30
46590;DHT22;32313;48.722;9.362;2023-05-15T11:06:34;22.10;95.50
46590;DHT22;32313;48.722;9.362;2023-05-15T11:09:33;22.90;95.90
46590;DHT22;32313;48.722;9.362;2023-05-15T11:12:01;23.60;94.10
46590;DHT22;32313;48.722;9.362;2023-05-15T11:17:17;24.10;92.40
46590;DHT22;32313;48.722;9.362;2023-05-15T11:22:20;25.50;90.00
46590;DHT22;32313;48.722;9.362;2023-05-15T11:30:16;22.50;91.60
46590;DHT22;32313;48.722;9.362;2023-05-15T11:35:23;22.60;91.10
46590;DHT22;32313;48.722;9.362;2023-05-15T11:40:31;21.30;93.90
46590;DHT22;32313;48.722;9.362;2023-05-15T11:45:29;22.80;91.00
46590;DHT22;32313;48.722;9.362;2023-05-15T11:47:56;24.10;91.60
46590;DHT22;32313;48.722;9.362;2023-05-15T11:50:23;25.30;91.00
46590;DHT22;32313;48.722;9.362;2023-05-15T11:52:49;26.00;87.90
46590;DHT22;32313;48.722;9.362;2023-05-15T11:55:18;26.40;84.40
46590;DHT22;32313;48.722;9.362;2023-05-15T11:57:48;26.40;83.40
46590;DHT22;32313;48.722;9.362;2023-05-15T12:00:14;26.00;80.40
46590;DHT22;32313;48.722;9.362;2023-05-15T12:02:40;25.60;84.20
46590;DHT22;32313;48.722;9.362;2023-05-15T12:05:07;26.10;87.00
46590;DHT22;32313;48.722;9.362;2023-05-15T12:07:38;26.90;83.00
46590;DHT22;32313;48.722;9.362;2023-05-15T12:10:06;27.40;78.80
46590;DHT22;32313;48.722;9.362;2023-05-15T12:12:35;27.60;76.70
46590;DHT22;32313;48.722;9.362;2023-05-15T12:15:01;28.20;74.80
46590;DHT22;32313;48.722;9.362;2023-05-15T12:17:27;28.50;73.00
46590;DHT22;32313;48.722;9.362;2023-05-15T12:19:56;28.60;69.90
46590;DHT22;32313;48.722;9.362;2023-05-15T12:22:22;28.00;70.90
46590;DHT22;32313;48.722;9.362;2023-05-15T12:24:48;27.00;72.30
46590;DHT22;32313;48.722;9.362;2023-05-15T12:27:14;26.00;76.10
46590;DHT22;32313;48.722;9.362;2023-05-15T12:29:40;24.90;75.30
46590;DHT22;32313;48.722;9.362;2023-05-15T12:32:07;23.60;79.00
46590;DHT22;32313;48.722;9.362;2023-05-15T12:34:33;22.80;83.00
46590;DHT22;32313;48.722;9.362;2023-05-15T12:36:59;22.10;85.40
46590;DHT22;32313;48.722;9.362;2023-05-15T12:39:25;21.60;86.90
46590;DHT22;32313;48.722;9.362;2023-05-15T12:41:52;21.40;87.10
46590;DHT22;32313;48.722;9.362;2023-05-15T12:44:20;21.90;87.60
46590;DHT22;32313;48.722;9.362;2023-05-15T12:46:46;22.90;84.20
46590;DHT22;32313;48.722;9.362;2023-05-15T12:49:12;23.00;82.10
46590;DHT22;32313;48.722;9.362;2023-05-15T12:51:42;22.70;83.40
46590;DHT22;32313;48.722;9.362;2023-05-15T12:54:19;21.90;91.10
46590;DHT22;32313;48.722;9.362;2023-05-15T12:56:48;21.10;92.50
46590;DHT22;32313;48.722;9.362;2023-05-15T12:59:14;20.50;92.10
46590;DHT22;32313;48.722;9.362;2023-05-15T13:01:40;20.20;95.30
46590;DHT22;32313;48.722;9.362;2023-05-15T13:04:07;20.20;94.30
46590;DHT22;32313;48.722;9.362;2023-05-15T13:06:33;21.00;94.40
46590;DHT22;32313;48.722;9.362;2023-05-15T13:08:59;22.00;93.20
46590;DHT22;32313;48.722;9.362;2023-05-15T13:11:29;22.40;91.60
46590;DHT22;32313;48.722;9.362;2023-05-15T13:13:56;22.30;90.60
46590;DHT22;32313;48.722;9.362;2023-05-15T13:16:30;21.90;89.20
46590;DHT22;32313;48.722;9.362;2023-05-15T13:18:57;21.50;90.70
46590;DHT22;32313;48.722;9.362;2023-05-15T13:21:23;21.20;90.80
46590;DHT22;32313;48.722;9.362;2023-05-15T13:23:50;21.20;90.60
46590;DHT22;32313;48.722;9.362;2023-05-15T13:26:16;21.30;90.30
46590;DHT22;32313;48.722;9.362;2023-05-15T13:28:42;21.30;90.70
46590;DHT22;32313;48.722;9.362;2023-05-15T13:31:08;21.10;90.60
46590;DHT22;32313;48.722;9.362;2023-05-15T13:33:34;20.90;90.60
46590;DHT22;32313;48.722;9.362;2023-05-15T13:36:00;20.60;90.30
46590;DHT22;32313;48.722;9.362;2023-05-15T13:38:26;20.40;90.30
46590;DHT22;32313;48.722;9.362;2023-05-15T13:40:52;20.30;90.50
46590;DHT22;32313;48.722;9.362;2023-05-15T13:43:18;20.70;90.40
46590;DHT22;32313;48.722;9.362;2023-05-15T13:45:43;21.90;84.80
46590;DHT22;32313;48.722;9.362;2023-05-15T13:48:09;23.00;84.70
46590;DHT22;32313;48.722;9.362;2023-05-15T13:50:35;24.00;84.20
46590;DHT22;32313;48.722;9.362;2023-05-15T13:53:01;24.90;84.00
46590;DHT22;32313;48.722;9.362;2023-05-15T13:55:27;25.70;81.40
46590;DHT22;32313;48.722;9.362;2023-05-15T13:57:52;25.60;77.20
46590;DHT22;32313;48.722;9.362;2023-05-15T14:00:19;25.20;78.10
46590;DHT22;32313;48.722;9.362;2023-05-15T14:02:45;25.20;79.20
46590;DHT22;32313;48.722;9.362;2023-05-15T14:05:13;25.30;75.30
46590;DHT22;32313;48.722;9.362;2023-05-15T14:07:40;25.30;76.80
46590;DHT22;32313;48.722;9.362;2023-05-15T14:10:06;24.80;76.10
46590;DHT22;32313;48.722;9.362;2023-05-15T14:12:32;24.60;77.60
46590;DHT22;32313;48.722;9.362;2023-05-15T14:14:58;24.30;77.90
46590;DHT22;32313;48.722;9.362;2023-05-15T14:17:24;24.00;76.50
46590;DHT22;32313;48.722;9.362;2023-05-15T14:19:50;23.80;77.40
46590;DHT22;32313;48.722;9.362;2023-05-15T14:22:16;24.00;74.80
46590;DHT22;32313;48.722;9.362;2023-05-15T14:24:41;24.00;77.30
46590;DHT22;32313;48.722;9.362;2023-05-15T14:27:07;24.10;77.90
46590;DHT22;32313;48.722;9.362;2023-05-15T14:29:33;24.40;78.00
46590;DHT22;32313;48.722;9.362;2023-05-15T14:31:59;24.40;75.60
46590;DHT22;32313;48.722;9.362;2023-05-15T14:34:25;23.80;74.70
46590;DHT22;32313;48.722;9.362;2023-05-15T14:36:51;23.20;77.40
46590;DHT22;32313;48.722;9.362;2023-05-15T14:39:17;23.20;76.80
46590;DHT22;32313;48.722;9.362;2023-05-15T14:41:44;23.40;76.60
46590;DHT22;32313;48.722;9.362;2023-05-15T14:44:09;23.30;76.50
46590;DHT22;32313;48.722;9.362;2023-05-15T14:46:35;23.30;77.60
46590;DHT22;32313;48.722;9.362;2023-05-15T14:49:05;23.40;78.00
46590;DHT22;32313;48.722;9.362;2023-05-15T14:51:31;23.40;77.40
46590;DHT22;32313;48.722;9.362;2023-05-15T14:53:57;23.10;78.10
46590;DHT22;32313;48.722;9.362;2023-05-15T14:56:23;22.70;79.80
46590;DHT22;32313;48.722;9.362;2023-05-15T14:58:49;23.00;78.70
46590;DHT22;32313;48.722;9.362;2023-05-15T15:01:15;23.70;80.50
46590;DHT22;32313;48.722;9.362;2023-05-15T15:03:41;24.80;78.70
46590;DHT22;32313;48.722;9.362;2023-05-15T15:06:07;25.40;77.90
46590;DHT22;32313;48.722;9.362;2023-05-15T15:08:33;25.90;74.70
46590;DHT22;32313;48.722;9.362;2023-05-15T15:10:59;25.80;74.00
46590;DHT22;32313;48.722;9.362;2023-05-15T15:13:24;25.90;73.40
46590;DHT22;32313;48.722;9.362;2023-05-15T15:15:53;25.80;74.40
46590;DHT22;32313;48.722;9.362;2023-05-15T15:18:19;25.70;75.20
46590;DHT22;32313;48.722;9.362;2023-05-15T15:20:45;25.90;74.00
46590;DHT22;32313;48.722;9.362;2023-05-15T15:23:11;25.60;75.20
46590;DHT22;32313;48.722;9.362;2023-05-15T15:25:37;25.20;76.00
46590;DHT22;32313;48.722;9.362;2023-05-15T15:28:03;25.10;75.30
46590;DHT22;32313;48.722;9.362;2023-05-15T15:30:29;24.60;78.30
46590;DHT22;32313;48.722;9.362;2023-05-15T15:32:55;24.50;79.20
46590;DHT22;32313;48.722;9.362;2023-05-15T15:35:22;24.10;78.90
46590;DHT22;32313;48.722;9.362;2023-05-15T15:37:48;23.40;79.90
46590;DHT22;32313;48.722;9.362;2023-05-15T15:40:14;22.70;81.00
46590;DHT22;32313;48.722;9.362;2023-05-15T15:42:40;21.80;83.30
46590;DHT22;32313;48.722;9.362;2023-05-15T15:45:06;21.20;85.30
46590;DHT22;32313;48.722;9.362;2023-05-15T15:47:32;20.80;87.30
46590;DHT22;32313;48.722;9.362;2023-05-15T15:49:58;20.40;88.10
46590;DHT22;32313;48.722;9.362;2023-05-15T15:52:24;20.00;89.40
46590;DHT22;32313;48.722;9.362;2023-05-15T15:54:50;19.80;90.10
46590;DHT22;32313;48.722;9.362;2023-05-15T15:57:16;19.60;90.00
46590;DHT22;32313;48.722;9.362;2023-05-15T15:59:42;19.50;89.80
46590;DHT22;32313;48.722;9.362;2023-05-15T16:02:08;19.40;89.40
46590;DHT22;32313;48.722;9.362;2023-05-15T16:04:35;19.30;89.90
46590;DHT22;32313;48.722;9.362;2023-05-15T16:07:02;19.20;88.70
46590;DHT22;32313;48.722;9.362;2023-05-15T16:09:28;18.90;88.90
46590;DHT22;32313;48.722;9.362;2023-05-15T16:11:54;18.80;88.80